Weather reports worldwide

Advertisment
Isola Stromboli, Italy (16416): temperature & dewpoint: 09.11.2018 06:00:00 - 15.11.2018 06:00:00 (CET)Isola Stromboli, Italy (16416): wind speed: 09.11.2018 06:00:00 - 15.11.2018 06:00:00 (CET)Isola Stromboli, Italy (16416): wind direction: 09.11.2018 06:00:00 - 15.11.2018 06:00:00 (CET)Isola Stromboli, Italy (16416): reduced air pressure: 09.11.2018 06:00:00 - 15.11.2018 06:00:00 (CET)Isola Stromboli, Italy (16416): precipitation: 09.11.2018 06:00:00 - 15.11.2018 06:00:00 (CET)
Date & Time tt [°C] td [°C] ff [km/h] ff [kn] dd ppp [hPa] rr [mm]
15.11.2018 06:00:00 - - - - - - -
15.11.2018 05:00:00 15,2 12,3 8 4 S 1021,9 -
15.11.2018 04:00:00 15,9 12,0 2 1 S 1021,9 -
15.11.2018 03:00:00 15,6 11,7 5 3 S 1022,4 -
15.11.2018 02:00:00 15,4 12,3 5 3 S 1022,8 -
15.11.2018 01:00:00 16,0 13,4 11 6 S 1022,8 0,0
15.11.2018 00:00:00 15,5 12,4 8 4 S 1023,2 -
14.11.2018 23:00:00 16,4 13,4 13 7 S 1023,5 -
14.11.2018 22:00:00 15,6 12,1 5 3 S 1023,7 -
14.11.2018 21:00:00 15,9 12,4 4 2 S 1023,7 -
14.11.2018 20:00:00 16,0 13,2 5 3 S 1023,8 -
14.11.2018 19:00:00 16,6 13,6 9 5 S 1023,8 0,0
14.11.2018 18:00:00 16,8 14,2 11 6 S 1023,9 -
14.11.2018 17:00:00 16,9 14,5 11 6 S 1023,9 -
14.11.2018 16:00:00 17,3 14,5 8 4 S 1024,0 -
14.11.2018 15:00:00 17,6 14,0 9 5 S 1024,0 -
14.11.2018 14:00:00 18,2 14,0 11 6 S 1024,4 -
14.11.2018 13:00:00 18,5 14,3 15 8 S 1024,7 0,0
14.11.2018 12:00:00 18,7 13,7 11 6 S 1025,3 -
14.11.2018 11:00:00 20,2 13,3 5 3 S 1026,0 -
14.11.2018 10:00:00 18,5 12,8 9 5 S 1026,1 -
14.11.2018 09:00:00 17,8 13,8 5 3 S 1026,2 -
14.11.2018 08:00:00 16,8 14,0 8 4 S 1026,2 -
14.11.2018 07:00:00 16,0 12,9 9 5 S 1025,8 0,0
14.11.2018 06:00:00 16,1 12,8 9 5 S 1025,8 -
14.11.2018 05:00:00 16,2 13,0 13 7 S 1025,8 -
14.11.2018 04:00:00 16,4 13,4 13 7 S 1026,0 -
14.11.2018 03:00:00 16,0 13,8 11 6 S 1026,3 -
14.11.2018 02:00:00 16,3 14,1 9 5 S 1026,6 -
14.11.2018 01:00:00 16,3 13,9 11 6 S 1026,6 0,0
14.11.2018 00:00:00 16,3 14,1 11 6 S 1026,9 -
13.11.2018 23:00:00 16,4 12,3 11 6 S 1027,1 -
13.11.2018 22:00:00 16,5 13,7 13 7 S 1027,3 -
13.11.2018 21:00:00 16,7 13,7 9 5 S 1027,4 -
13.11.2018 20:00:00 16,7 14,6 11 6 S 1027,5 -
13.11.2018 19:00:00 17,0 15,1 9 5 S 1027,6 0,0
13.11.2018 18:00:00 17,0 15,3 9 5 S 1027,4 -
13.11.2018 17:00:00 17,1 15,4 9 5 S 1027,0 -
13.11.2018 16:00:00 17,0 14,9 8 4 S 1026,9 -
13.11.2018 15:00:00 17,6 15,2 5 3 S 1026,8 -
13.11.2018 14:00:00 18,4 16,1 8 4 S 1027,2 -
13.11.2018 13:00:00 19,0 15,8 5 3 S 1027,6 0,0
13.11.2018 12:00:00 19,3 16,3 4 2 S 1027,9 -
13.11.2018 11:00:00 - - - - - - -
13.11.2018 10:00:00 19,3 17,0 4 2 S 1028,1 -
13.11.2018 09:00:00 19,0 17,8 0 0 N 1028,1 -
13.11.2018 08:00:00 18,1 17,7 0 0 N 1027,8 -
13.11.2018 07:00:00 16,2 15,5 0 0 N 1027,2 0,0
13.11.2018 06:00:00 16,6 16,2 0 0 N 1027,0 -
13.11.2018 05:00:00 16,5 16,1 0 0 N 1026,9 -
13.11.2018 04:00:00 16,8 16,4 0 0 N 1026,7 -
13.11.2018 03:00:00 17,0 16,6 2 1 S 1026,9 -
13.11.2018 02:00:00 17,2 16,5 0 0 N 1026,9 -
13.11.2018 01:00:00 17,2 16,3 0 0 N 1026,7 0,0
13.11.2018 00:00:00 17,8 16,8 0 0 N 1026,6 -
12.11.2018 23:00:00 17,6 - - - - - -
12.11.2018 22:00:00 17,7 16,3 0 0 N 1026,4 -
12.11.2018 21:00:00 17,4 15,7 0 0 N 1026,6 -
12.11.2018 20:00:00 17,3 15,6 2 1 S 1026,4 -
12.11.2018 19:00:00 17,3 15,4 2 1 S 1026,3 0,0
12.11.2018 18:00:00 17,2 14,8 0 0 N 1026,0 -
12.11.2018 17:00:00 17,0 14,8 0 0 N 1025,6 -
12.11.2018 16:00:00 17,9 13,7 5 3 S 1025,5 -
12.11.2018 15:00:00 19,8 11,8 4 2 S 1025,4 -
12.11.2018 14:00:00 20,2 14,0 0 0 N 1025,4 -
12.11.2018 13:00:00 20,3 14,8 4 2 S 1025,6 0,0
12.11.2018 12:00:00 20,2 16,6 9 5 S 1025,9 -
12.11.2018 11:00:00 20,4 16,6 8 4 S 1026,3 -
12.11.2018 10:00:00 20,1 17,2 9 5 S 1026,0 -
12.11.2018 09:00:00 19,5 17,0 9 5 S 1025,7 -
12.11.2018 08:00:00 18,5 16,9 9 5 S 1025,2 -
12.11.2018 07:00:00 16,9 15,5 5 3 S 1024,7 0,0
12.11.2018 06:00:00 17,0 15,8 5 3 S 1024,4 -
12.11.2018 05:00:00 16,9 15,4 5 3 S 1023,9 -
12.11.2018 04:00:00 16,9 15,7 8 4 S 1023,7 -
12.11.2018 03:00:00 17,1 15,7 8 4 S 1023,7 -
12.11.2018 02:00:00 17,6 16,4 9 5 S 1023,5 -
12.11.2018 01:00:00 17,2 15,8 8 4 S 1023,4 0,0
12.11.2018 00:00:00 17,2 15,8 4 2 S 1023,5 -
11.11.2018 23:00:00 18,2 16,5 9 5 S 1023,4 -
11.11.2018 22:00:00 18,2 15,9 8 4 S 1023,2 -
11.11.2018 21:00:00 17,9 14,9 0 0 N 1023,1 -
11.11.2018 20:00:00 17,6 14,6 0 0 N 1022,7 -
11.11.2018 19:00:00 17,7 14,1 0 0 N 1022,0 0,0
11.11.2018 18:00:00 17,7 15,3 0 0 N 1021,5 -
11.11.2018 17:00:00 18,2 15,8 0 0 N 1021,0 -
11.11.2018 16:00:00 18,9 14,5 2 1 S 1020,7 -
11.11.2018 15:00:00 20,9 15,4 0 0 N 1020,6 -
11.11.2018 14:00:00 20,0 14,9 8 4 S 1020,2 -
11.11.2018 13:00:00 20,3 15,4 8 4 S 1020,1 0,0
11.11.2018 12:00:00 20,8 15,9 8 4 S 1020,0 -
11.11.2018 11:00:00 20,7 17,4 11 6 S 1020,1 -
11.11.2018 10:00:00 - - - - - - -
11.11.2018 09:00:00 19,9 17,2 13 7 S 1019,1 -
11.11.2018 08:00:00 18,8 16,9 8 4 S 1018,6 -
11.11.2018 07:00:00 17,0 15,6 4 2 S 1017,8 0,0
11.11.2018 06:00:00 16,9 15,4 2 1 S 1017,3 -
11.11.2018 05:00:00 17,2 16,0 5 3 S 1017,1 -
11.11.2018 04:00:00 17,0 15,3 0 0 N 1016,8 -
11.11.2018 03:00:00 17,2 15,7 4 2 S 1016,6 -
11.11.2018 02:00:00 17,1 14,8 4 2 S 1016,5 -
11.11.2018 01:00:00 17,8 15,7 13 7 S 1016,3 0,0
11.11.2018 00:00:00 17,6 15,5 11 6 S 1016,1 -
10.11.2018 23:00:00 17,3 15,2 5 3 S 1016,2 -
10.11.2018 22:00:00 17,2 14,0 4 2 S 1015,8 -
10.11.2018 21:00:00 17,9 15,6 9 5 S 1015,5 -
10.11.2018 20:00:00 17,5 14,9 5 3 S 1015,0 -
10.11.2018 19:00:00 18,4 15,4 9 5 S 1014,6 0,0
10.11.2018 18:00:00 18,4 15,8 16 9 S 1014,3 -
10.11.2018 17:00:00 18,4 15,8 16 9 S 1014,0 -
10.11.2018 16:00:00 18,9 15,9 15 8 S 1013,7 -
10.11.2018 15:00:00 20,3 15,2 11 6 S 1013,8 -
10.11.2018 14:00:00 20,2 17,0 13 7 S 1014,2 -
10.11.2018 13:00:00 20,4 17,0 13 7 S 1014,5 0,0
10.11.2018 12:00:00 20,3 16,9 15 8 S 1014,8 -
10.11.2018 11:00:00 20,1 16,9 16 9 S 1015,6 -
10.11.2018 10:00:00 19,5 16,7 16 9 S 1015,7 -
10.11.2018 09:00:00 19,0 16,4 16 9 S 1015,9 -
10.11.2018 08:00:00 18,0 15,4 13 7 S 1015,7 -
10.11.2018 07:00:00 16,9 15,7 11 6 S 1015,8 0,0
10.11.2018 06:00:00 16,9 15,5 9 5 S 1015,8 -
10.11.2018 05:00:00 16,8 14,2 8 4 S 1015,7 -
10.11.2018 04:00:00 16,6 14,2 8 4 S 1015,9 -
10.11.2018 03:00:00 16,5 13,9 4 2 S 1016,4 -
10.11.2018 02:00:00 16,5 13,0 8 4 S 1016,7 -
10.11.2018 01:00:00 16,3 10,6 11 6 S 1017,0 0,0
10.11.2018 00:00:00 16,5 12,4 9 5 S 1017,4 -
09.11.2018 23:00:00 16,9 13,9 5 3 S 1017,7 -
09.11.2018 22:00:00 16,4 12,3 2 1 S 1018,0 -
09.11.2018 21:00:00 16,4 11,7 4 2 S 1018,0 -
09.11.2018 20:00:00 15,7 13,5 5 3 S 1017,9 -
09.11.2018 19:00:00 16,0 14,3 5 3 S 1017,8 0,0
09.11.2018 18:00:00 15,7 13,5 5 3 S 1017,7 -
09.11.2018 17:00:00 16,0 13,4 4 2 S 1017,7 -
09.11.2018 16:00:00 17,0 13,8 0 0 N 1017,6 -
09.11.2018 15:00:00 18,4 14,8 8 4 S 1017,7 -
09.11.2018 14:00:00 18,2 14,8 8 4 S 1018,0 -
09.11.2018 13:00:00 18,9 15,3 5 3 S 1018,7 0,0
09.11.2018 12:00:00 19,1 15,5 8 4 S 1019,2 -
09.11.2018 11:00:00 19,2 15,0 9 5 S 1019,9 -
09.11.2018 10:00:00 19,1 15,5 5 3 S 1020,0 -
09.11.2018 09:00:00 18,4 15,0 8 4 S 1019,9 -
09.11.2018 08:00:00 17,6 15,0 8 4 S 1019,9 -
09.11.2018 07:00:00 15,6 12,8 4 2 S 1019,9 0,0
09.11.2018 06:00:00 15,5 12,6 4 2 S 1019,8 -

tt = temperature
td = dewpoint
ff = wind speed
dd = wind direction
ppp = reduced air pressure
rr = precipitation

Next stations